Time;durP1;ratioP1;P1;durP2;ratioP2;P2;SDS_P1;SDS_P2;PMS_P1;PMS_P2;Temp;Humidity;BMP_temperature;BMP_pressure;BME280_temperature;BME280_humidity;BME280_pressure;Samples;Min_cycle;Max_cycle;Signal;HPM_P1;HPM_P2
2023/07/24 00:01:05;;;;;;;8.33;7.47;;;;;;;;;;5097209;28;20206;-78
2023/07/24 00:03:32;;;;;;;7.87;7.20;;;;;;;;;;5080544;28;20203;-78
2023/07/24 00:06:00;;;;;;;8.20;7.40;;;;;;;;;;5096052;28;20717;-78
2023/07/24 00:08:27;;;;;;;7.67;6.90;;;;;;;;;;5114870;28;20223;-78
2023/07/24 00:10:54;;;;;;;11.07;7.03;;;;;;;;;;5096726;28;20820;-78
2023/07/24 00:13:21;;;;;;;7.93;7.23;;;;;;;;;;5114908;28;20199;-78
2023/07/24 00:15:50;;;;;;;8.77;8.07;;;;;;;;;;5096268;28;20203;-78
2023/07/24 00:18:17;;;;;;;7.20;6.07;;;;;;;;;;5096373;28;20719;-78
2023/07/24 00:20:43;;;;;;;7.93;7.30;;;;;;;;;;5114458;28;20199;-78
2023/07/24 00:23:10;;;;;;;7.47;6.83;;;;;;;;;;5096161;28;20207;-78
2023/07/24 00:25:37;;;;;;;8.63;7.93;;;;;;;;;;5114348;28;20219;-78
2023/07/24 00:28:04;;;;;;;9.10;7.37;;;;;;;;;;5114268;28;20200;-78
2023/07/24 00:30:31;;;;;;;8.27;7.37;;;;;;;;;;5079598;28;20693;-78
2023/07/24 00:33:00;;;;;;;9.87;7.20;;;;;;;;;;5114129;28;20191;-78
2023/07/24 00:35:27;;;;;;;11.00;7.20;;;;;;;;;;5096242;28;20660;-78
2023/07/24 00:37:54;;;;;;;8.23;7.43;;;;;;;;;;5096008;28;20199;-78
2023/07/24 00:40:21;;;;;;;7.70;7.00;;;;;;;;;;5115275;28;20545;-78
2023/07/24 00:42:49;;;;;;;7.57;6.97;;;;;;;;;;5096035;28;20200;-78
2023/07/24 00:45:16;;;;;;;7.17;6.47;;;;;;;;;;5096057;28;20287;-78
2023/07/24 00:47:44;;;;;;;8.53;6.83;;;;;;;;;;5113472;28;20203;-78
2023/07/24 00:50:13;;;;;;;9.67;7.23;;;;;;;;;;5096010;28;20202;-78
2023/07/24 00:52:41;;;;;;;10.63;7.00;;;;;;;;;;5114072;28;20195;-78
2023/07/24 00:55:09;;;;;;;9.27;6.60;;;;;;;;;;5095193;28;20604;-78
2023/07/24 00:57:36;;;;;;;8.03;7.20;;;;;;;;;;5113815;28;20202;-78
2023/07/24 01:00:04;;;;;;;8.57;7.37;;;;;;;;;;5113842;28;20188;-78
2023/07/24 01:02:31;;;;;;;9.53;7.60;;;;;;;;;;5095720;28;20283;-78
2023/07/24 01:04:59;;;;;;;8.00;7.20;;;;;;;;;;5078821;28;20215;-78
2023/07/24 01:07:28;;;;;;;8.00;7.20;;;;;;;;;;5095859;28;20583;-78
2023/07/24 01:09:55;;;;;;;9.13;7.33;;;;;;;;;;5095447;28;20203;-78
2023/07/24 01:12:27;;;;;;;8.53;6.43;;;;;;;;;;5113272;28;20204;-78
2023/07/24 01:14:58;;;;;;;7.73;7.00;;;;;;;;;;5114079;28;20213;-78
2023/07/24 01:17:26;;;;;;;9.37;7.00;;;;;;;;;;5095340;28;20203;-78
2023/07/24 01:19:56;;;;;;;9.10;7.53;;;;;;;;;;5095322;28;20199;-78
2023/07/24 01:22:31;;;;;;;8.03;7.23;;;;;;;;;;5113409;28;20195;-78
2023/07/24 01:25:10;;;;;;;7.13;6.53;;;;;;;;;;5112811;28;20222;-78
2023/07/24 01:27:42;;;;;;;12.10;7.27;;;;;;;;;;5093171;28;20206;-78
2023/07/24 01:30:10;;;;;;;8.50;7.50;;;;;;;;;;5112919;28;20661;-78
2023/07/24 01:32:37;;;;;;;8.90;7.67;;;;;;;;;;5112658;28;20732;-78
2023/07/24 01:35:05;;;;;;;8.50;6.93;;;;;;;;;;5113286;28;20206;-78
2023/07/24 01:37:33;;;;;;;9.83;6.93;;;;;;;;;;5112246;28;20758;-78
2023/07/24 01:40:01;;;;;;;7.43;6.70;;;;;;;;;;5112789;28;20203;-78
2023/07/24 01:42:29;;;;;;;8.30;7.57;;;;;;;;;;5077919;28;20662;-78
2023/07/24 01:44:57;;;;;;;8.23;7.53;;;;;;;;;;5095164;28;20206;-78
2023/07/24 01:47:25;;;;;;;8.33;7.00;;;;;;;;;;5094911;28;20259;-78
2023/07/24 01:49:52;;;;;;;7.33;6.70;;;;;;;;;;5113214;28;20195;-78
2023/07/24 01:52:19;;;;;;;7.87;7.07;;;;;;;;;;5113251;28;20219;-78
2023/07/24 01:54:46;;;;;;;7.60;7.00;;;;;;;;;;5094766;28;20710;-78
2023/07/24 01:57:13;;;;;;;7.73;7.03;;;;;;;;;;5112445;28;20195;-78
2023/07/24 01:59:40;;;;;;;8.13;7.37;;;;;;;;;;5112366;28;20207;-78
2023/07/24 02:02:09;;;;;;;10.77;8.03;;;;;;;;;;5112318;28;20206;-78
2023/07/24 02:04:36;;;;;;;8.80;8.10;;;;;;;;;;5112424;28;20202;-78
2023/07/24 02:07:03;;;;;;;9.57;8.57;;;;;;;;;;5094848;28;20223;-78
2023/07/24 02:09:30;;;;;;;9.60;8.03;;;;;;;;;;5094184;28;20191;-78
2023/07/24 02:11:57;;;;;;;8.43;7.47;;;;;;;;;;5112779;28;20202;-78
2023/07/24 02:14:24;;;;;;;9.40;8.47;;;;;;;;;;5112121;28;20191;-78
2023/07/24 02:16:51;;;;;;;9.47;8.50;;;;;;;;;;5094488;28;20260;-78
2023/07/24 02:19:20;;;;;;;9.13;8.13;;;;;;;;;;5077700;28;20195;-78
2023/07/24 02:21:47;;;;;;;10.73;8.77;;;;;;;;;;5112156;28;20196;-78
2023/07/24 02:24:14;;;;;;;9.67;8.37;;;;;;;;;;5060902;28;20279;-78
2023/07/24 02:26:41;;;;;;;9.30;8.50;;;;;;;;;;5077623;28;20227;-78
2023/07/24 02:29:08;;;;;;;9.50;8.23;;;;;;;;;;5094006;28;20206;-78
2023/07/24 02:31:35;;;;;;;9.70;8.73;;;;;;;;;;5113037;28;20192;-78
2023/07/24 02:34:02;;;;;;;8.53;7.73;;;;;;;;;;5077290;28;20213;-78
2023/07/24 02:36:31;;;;;;;8.80;7.90;;;;;;;;;;5060981;28;20252;-78
2023/07/24 02:38:57;;;;;;;8.53;7.73;;;;;;;;;;5112034;28;20195;-78
2023/07/24 02:41:25;;;;;;;10.87;7.30;;;;;;;;;;5094187;28;20195;-79
2023/07/24 02:43:52;;;;;;;8.67;6.90;;;;;;;;;;5094176;28;20206;-79
2023/07/24 02:46:19;;;;;;;7.57;6.77;;;;;;;;;;5112028;28;20701;-78
2023/07/24 02:48:46;;;;;;;7.03;6.43;;;;;;;;;;5076899;28;20199;-79
2023/07/24 02:51:13;;;;;;;7.40;6.70;;;;;;;;;;5111826;28;20215;-78
2023/07/24 02:53:42;;;;;;;8.10;7.30;;;;;;;;;;5094255;28;20214;-78
2023/07/24 02:56:09;;;;;;;8.10;7.40;;;;;;;;;;5112259;28;20195;-79
2023/07/24 02:58:36;;;;;;;8.43;7.67;;;;;;;;;;5077303;28;20722;-78
2023/07/24 03:01:06;;;;;;;7.60;6.90;;;;;;;;;;5093612;28;20200;-78
2023/07/24 03:03:33;;;;;;;8.87;7.97;;;;;;;;;;5094037;28;20688;-78
2023/07/24 03:06:00;;;;;;;10.83;9.77;;;;;;;;;;5076897;28;20212;-78
2023/07/24 03:08:27;;;;;;;9.33;8.43;;;;;;;;;;5077249;28;20689;-78
2023/07/24 03:10:56;;;;;;;9.77;8.90;;;;;;;;;;5094096;28;20207;-78
2023/07/24 03:13:23;;;;;;;10.67;9.67;;;;;;;;;;5094176;28;20200;-78
2023/07/24 03:15:54;;;;;;;9.70;8.87;;;;;;;;;;5077563;28;20199;-79
2023/07/24 03:18:21;;;;;;;12.60;11.47;;;;;;;;;;5114356;28;20231;-79
2023/07/24 03:20:48;;;;;;;13.30;12.10;;;;;;;;;;5097764;28;20200;-79
2023/07/24 03:23:15;;;;;;;11.23;10.27;;;;;;;;;;5115481;28;20670;-79
2023/07/24 03:25:43;;;;;;;12.67;11.57;;;;;;;;;;5115681;28;20222;-79
2023/07/24 03:28:11;;;;;;;10.57;9.57;;;;;;;;;;5115442;28;20195;-79
2023/07/24 03:30:38;;;;;;;11.27;10.27;;;;;;;;;;5098377;28;20257;-79
2023/07/24 03:33:06;;;;;;;10.97;9.83;;;;;;;;;;5077191;28;20201;-79
2023/07/24 03:35:33;;;;;;;10.70;9.70;;;;;;;;;;5077315;28;20210;-79
2023/07/24 03:38:00;;;;;;;10.63;9.63;;;;;;;;;;5094740;28;20200;-79
2023/07/24 03:40:27;;;;;;;9.73;8.93;;;;;;;;;;5076047;28;20196;-78
2023/07/24 03:42:54;;;;;;;10.07;9.20;;;;;;;;;;5095445;28;20202;-78
2023/07/24 03:45:23;;;;;;;10.57;9.67;;;;;;;;;;5094960;28;20200;-79
2023/07/24 03:47:51;;;;;;;10.40;9.40;;;;;;;;;;5076957;28;20234;-78
2023/07/24 03:50:18;;;;;;;10.80;9.77;;;;;;;;;;5076133;28;20228;-79
2023/07/24 03:52:45;;;;;;;10.00;9.10;;;;;;;;;;5094629;28;20611;-79
2023/07/24 03:55:12;;;;;;;10.80;9.80;;;;;;;;;;5076594;28;20204;-79
2023/07/24 03:57:39;;;;;;;9.43;8.63;;;;;;;;;;5076584;28;20613;-78
2023/07/24 04:00:07;;;;;;;9.20;8.30;;;;;;;;;;5077256;28;20204;-79
2023/07/24 04:02:35;;;;;;;9.83;8.83;;;;;;;;;;5094900;28;20203;-79
2023/07/24 04:05:03;;;;;;;9.93;8.93;;;;;;;;;;5076716;28;20572;-78
2023/07/24 04:07:30;;;;;;;10.47;9.47;;;;;;;;;;5076400;28;20691;-79
2023/07/24 04:09:57;;;;;;;10.23;9.33;;;;;;;;;;5077024;28;20564;-78
2023/07/24 04:12:24;;;;;;;11.43;10.43;;;;;;;;;;5076099;28;20196;-79
2023/07/24 04:14:51;;;;;;;12.20;9.77;;;;;;;;;;5094143;28;20693;-79
2023/07/24 04:17:18;;;;;;;11.07;9.97;;;;;;;;;;5075805;28;20200;-78
2023/07/24 04:19:47;;;;;;;11.33;10.23;;;;;;;;;;5059262;28;20200;-78
2023/07/24 04:22:14;;;;;;;11.53;10.43;;;;;;;;;;5076260;28;20204;-78
2023/07/24 04:24:41;;;;;;;10.27;9.30;;;;;;;;;;5075687;28;20196;-78
2023/07/24 04:27:08;;;;;;;10.53;9.63;;;;;;;;;;5059229;28;20274;-78
2023/07/24 04:29:35;;;;;;;11.30;9.40;;;;;;;;;;5074616;28;20682;-78
2023/07/24 04:32:02;;;;;;;11.00;9.27;;;;;;;;;;5093852;28;20210;-78
2023/07/24 04:34:30;;;;;;;10.00;9.03;;;;;;;;;;5076156;28;20195;-78
2023/07/24 04:36:58;;;;;;;10.87;9.93;;;;;;;;;;5075653;28;20196;-78
2023/07/24 04:39:25;;;;;;;9.27;8.47;;;;;;;;;;5094095;28;20196;-78
2023/07/24 04:41:54;;;;;;;11.00;9.90;;;;;;;;;;5105677;28;20200;-78
2023/07/24 04:44:20;;;;;;;10.80;9.80;;;;;;;;;;5095965;28;20666;-78
2023/07/24 04:46:47;;;;;;;9.90;9.10;;;;;;;;;;5113871;28;20222;-78
2023/07/24 04:49:14;;;;;;;10.73;9.73;;;;;;;;;;5113840;28;20195;-78
2023/07/24 04:51:41;;;;;;;10.13;9.17;;;;;;;;;;5114279;28;20223;-78
2023/07/24 04:54:09;;;;;;;9.83;8.97;;;;;;;;;;5114241;28;20323;-78
2023/07/24 04:56:36;;;;;;;9.77;8.63;;;;;;;;;;5113922;28;20570;-78
2023/07/24 04:59:02;;;;;;;10.00;8.70;;;;;;;;;;5113921;28;20294;-78
2023/07/24 05:01:29;;;;;;;9.67;8.77;;;;;;;;;;5113968;28;20260;-78
2023/07/24 05:03:56;;;;;;;9.23;8.13;;;;;;;;;;5114107;28;20568;-78
2023/07/24 05:06:23;;;;;;;9.33;8.03;;;;;;;;;;5113476;28;20693;-78
2023/07/24 05:08:50;;;;;;;8.87;8.07;;;;;;;;;;5114585;28;20278;-78
2023/07/24 05:11:18;;;;;;;12.23;8.27;;;;;;;;;;5113470;28;20264;-78
2023/07/24 05:13:45;;;;;;;8.57;7.70;;;;;;;;;;5113120;28;20650;-78
2023/07/24 05:16:12;;;;;;;9.50;8.57;;;;;;;;;;5113188;28;20226;-78
2023/07/24 05:18:38;;;;;;;9.73;8.47;;;;;;;;;;5113328;28;20206;-78
2023/07/24 05:21:05;;;;;;;9.87;7.93;;;;;;;;;;5112614;28;20623;-78
2023/07/24 05:23:32;;;;;;;18.47;8.10;;;;;;;;;;5112497;28;20203;-78
2023/07/24 05:25:59;;;;;;;11.00;7.37;;;;;;;;;;5105377;28;20568;-78
2023/07/24 05:28:28;;;;;;;12.60;7.97;;;;;;;;;;5092178;28;20283;-78
2023/07/24 05:30:55;;;;;;;8.63;7.73;;;;;;;;;;5097207;28;20196;-78
2023/07/24 05:33:22;;;;;;;8.47;7.07;;;;;;;;;;5103753;28;20192;-78
2023/07/24 05:35:49;;;;;;;9.50;7.87;;;;;;;;;;5113170;28;20200;-78
2023/07/24 05:38:16;;;;;;;8.47;7.60;;;;;;;;;;5113040;28;20202;-78
2023/07/24 05:40:43;;;;;;;10.10;7.73;;;;;;;;;;5112587;28;20267;-78
2023/07/24 05:43:10;;;;;;;16.87;8.10;;;;;;;;;;5112931;28;20692;-78
2023/07/24 05:45:38;;;;;;;9.77;8.27;;;;;;;;;;5112721;28;20689;-78
2023/07/24 05:48:05;;;;;;;9.30;7.97;;;;;;;;;;5113186;28;20230;-78
2023/07/24 05:50:32;;;;;;;11.07;7.47;;;;;;;;;;5113012;28;20223;-78
2023/07/24 05:52:58;;;;;;;9.57;7.60;;;;;;;;;;5112912;28;20199;-78
2023/07/24 05:55:25;;;;;;;9.77;8.10;;;;;;;;;;5113748;28;20205;-78
2023/07/24 05:57:52;;;;;;;10.10;7.60;;;;;;;;;;5113614;28;20196;-78
2023/07/24 06:00:19;;;;;;;10.03;7.33;;;;;;;;;;5112748;28;20566;-78
2023/07/24 06:02:47;;;;;;;11.77;6.97;;;;;;;;;;5112731;28;20748;-78
2023/07/24 06:05:14;;;;;;;9.93;7.57;;;;;;;;;;5112490;28;20199;-78
2023/07/24 06:07:41;;;;;;;10.77;8.57;;;;;;;;;;5112583;28;20230;-78
2023/07/24 06:10:09;;;;;;;8.70;7.47;;;;;;;;;;5113181;28;20199;-78
2023/07/24 06:12:35;;;;;;;9.13;7.13;;;;;;;;;;5108480;28;20192;-78
2023/07/24 06:15:03;;;;;;;7.57;6.77;;;;;;;;;;5091552;28;20210;-78
2023/07/24 06:17:30;;;;;;;10.53;6.67;;;;;;;;;;5091864;28;20249;-79
2023/07/24 06:19:58;;;;;;;13.83;7.50;;;;;;;;;;5099763;28;20202;-78
2023/07/24 06:22:26;;;;;;;8.30;7.00;;;;;;;;;;5105937;28;20198;-78
2023/07/24 06:24:53;;;;;;;9.07;7.80;;;;;;;;;;5111797;28;20199;-78
2023/07/24 06:27:19;;;;;;;7.27;6.67;;;;;;;;;;5111636;28;20584;-78
2023/07/24 06:29:46;;;;;;;7.17;6.47;;;;;;;;;;5111451;28;20195;-78
2023/07/24 06:32:14;;;;;;;7.53;6.90;;;;;;;;;;5111571;28;20195;-78
2023/07/24 06:34:41;;;;;;;8.40;7.60;;;;;;;;;;5109228;28;20619;-78
2023/07/24 06:37:09;;;;;;;7.97;7.27;;;;;;;;;;5091736;28;20192;-78
2023/07/24 06:39:36;;;;;;;7.57;6.77;;;;;;;;;;5091743;28;20285;-78
2023/07/24 06:42:03;;;;;;;7.90;7.10;;;;;;;;;;5090442;28;20192;-78
2023/07/24 06:44:30;;;;;;;10.20;6.70;;;;;;;;;;5104723;28;20210;-78
2023/07/24 06:46:57;;;;;;;7.20;6.50;;;;;;;;;;5111003;28;20219;-78
2023/07/24 06:49:24;;;;;;;6.50;5.90;;;;;;;;;;5111258;28;20196;-78
2023/07/24 06:51:50;;;;;;;6.80;6.13;;;;;;;;;;5112152;28;20226;-78
2023/07/24 06:54:19;;;;;;;7.67;7.00;;;;;;;;;;5115449;28;20576;-78
2023/07/24 06:56:45;;;;;;;8.00;7.20;;;;;;;;;;5115170;28;20191;-78
2023/07/24 06:59:12;;;;;;;7.27;6.60;;;;;;;;;;5115602;28;20284;-78
2023/07/24 07:01:39;;;;;;;7.30;6.60;;;;;;;;;;5115536;28;20191;-78
2023/07/24 07:04:06;;;;;;;6.87;6.17;;;;;;;;;;5116078;28;20623;-77
2023/07/24 07:06:33;;;;;;;7.63;6.30;;;;;;;;;;5105980;28;20666;-78
2023/07/24 07:09:00;;;;;;;7.27;6.60;;;;;;;;;;5099628;28;20279;-78
2023/07/24 07:11:28;;;;;;;7.67;6.87;;;;;;;;;;5095141;28;20199;-78
2023/07/24 07:13:55;;;;;;;8.07;6.80;;;;;;;;;;5103819;28;20192;-78
2023/07/24 07:16:22;;;;;;;6.90;6.30;;;;;;;;;;5100030;28;20191;-78
2023/07/24 07:18:48;;;;;;;8.48;7.10;;;;;;;;;;5106303;28;20196;-79
2023/07/24 07:21:15;;;;;;;9.07;7.00;;;;;;;;;;5111877;28;20249;-78
2023/07/24 07:23:42;;;;;;;7.97;7.28;;;;;;;;;;5103768;28;20691;-78
2023/07/24 07:26:09;;;;;;;9.60;8.65;;;;;;;;;;5094246;28;20598;-78
2023/07/24 07:28:37;;;;;;;11.10;9.23;;;;;;;;;;5097172;28;20777;-78
2023/07/24 07:31:04;;;;;;;10.90;8.70;;;;;;;;;;5110133;28;20613;-78
2023/07/24 07:33:31;;;;;;;9.70;8.70;;;;;;;;;;5112651;28;20547;-78
2023/07/24 07:35:57;;;;;;;9.90;8.93;;;;;;;;;;5094785;28;20235;-77
2023/07/24 07:38:25;;;;;;;9.57;8.73;;;;;;;;;;5095110;28;20200;-78
2023/07/24 07:40:52;;;;;;;10.20;8.77;;;;;;;;;;5111162;28;20195;-78
2023/07/24 07:43:18;;;;;;;9.32;8.25;;;;;;;;;;5105605;28;20196;-78
2023/07/24 07:45:47;;;;;;;10.80;8.43;;;;;;;;;;5114518;28;20658;-78
2023/07/24 07:48:15;;;;;;;10.57;9.53;;;;;;;;;;5097062;28;20216;-78
2023/07/24 07:50:42;;;;;;;10.77;8.88;;;;;;;;;;5094729;28;20235;-78
2023/07/24 07:53:09;;;;;;;10.43;8.00;;;;;;;;;;5093551;28;20219;-78
2023/07/24 07:55:36;;;;;;;9.93;7.25;;;;;;;;;;5098616;28;20195;-78
2023/07/24 07:58:02;;;;;;;9.60;8.80;;;;;;;;;;5104998;28;20658;-78
2023/07/24 08:00:29;;;;;;;9.15;8.27;;;;;;;;;;5115368;28;20199;-78
2023/07/24 08:02:57;;;;;;;12.80;8.77;;;;;;;;;;5113676;28;20199;-78
2023/07/24 08:05:24;;;;;;;9.18;8.10;;;;;;;;;;5114376;28;20282;-78
2023/07/24 08:07:51;;;;;;;8.27;7.50;;;;;;;;;;5102558;28;20226;-78
2023/07/24 08:10:18;;;;;;;10.00;7.13;;;;;;;;;;5114628;28;20203;-78
2023/07/24 08:12:45;;;;;;;8.68;7.20;;;;;;;;;;5115123;28;20199;-78
2023/07/24 08:15:12;;;;;;;11.05;7.45;;;;;;;;;;5114611;28;20199;-78
2023/07/24 08:17:39;;;;;;;7.53;6.80;;;;;;;;;;5106437;28;20708;-78
2023/07/24 08:20:08;;;;;;;9.07;8.18;;;;;;;;;;5095075;28;20200;-78
2023/07/24 08:22:35;;;;;;;7.20;6.60;;;;;;;;;;5093839;28;20266;-78
2023/07/24 08:25:02;;;;;;;9.68;7.65;;;;;;;;;;5109001;28;20661;-79
2023/07/24 08:27:31;;;;;;;6.95;6.35;;;;;;;;;;5104664;28;20231;-78
2023/07/24 08:29:58;;;;;;;7.50;6.78;;;;;;;;;;5105470;28;20654;-78
2023/07/24 08:32:25;;;;;;;7.75;6.30;;;;;;;;;;5098967;28;20207;-78
2023/07/24 08:34:52;;;;;;;7.65;6.90;;;;;;;;;;5093206;28;20204;-79
2023/07/24 08:37:20;;;;;;;7.00;5.63;;;;;;;;;;5095243;28;20204;-78
2023/07/24 08:39:47;;;;;;;7.43;6.63;;;;;;;;;;5099172;28;20192;-78
2023/07/24 08:42:14;;;;;;;8.40;7.03;;;;;;;;;;5101931;28;20196;-78
2023/07/24 08:44:41;;;;;;;8.82;7.93;;;;;;;;;;5093637;28;20196;-78
2023/07/24 08:47:11;;;;;;;8.48;7.50;;;;;;;;;;5093119;28;20247;-78
2023/07/24 08:49:38;;;;;;;7.60;6.68;;;;;;;;;;5108628;28;20272;-78
2023/07/24 08:52:06;;;;;;;7.30;6.57;;;;;;;;;;5113832;28;20228;-78
2023/07/24 08:54:36;;;;;;;8.43;7.35;;;;;;;;;;5099696;28;20290;-78
2023/07/24 08:57:03;;;;;;;7.90;6.82;;;;;;;;;;5092506;28;20228;-78
2023/07/24 08:59:30;;;;;;;7.40;6.70;;;;;;;;;;5095154;28;20192;-78
2023/07/24 09:01:57;;;;;;;6.65;6.03;;;;;;;;;;5113452;28;20290;-78
2023/07/24 09:04:25;;;;;;;8.20;7.40;;;;;;;;;;5113672;28;20199;-78
2023/07/24 09:06:52;;;;;;;7.55;5.82;;;;;;;;;;5102788;28;20196;-78
2023/07/24 09:09:19;;;;;;;8.02;5.88;;;;;;;;;;5092378;28;20223;-78
2023/07/24 09:11:51;;;;;;;6.38;5.88;;;;;;;;;;5101181;28;20203;-78
2023/07/24 09:14:22;;;;;;;6.43;5.82;;;;;;;;;;5100743;28;20204;-77
2023/07/24 09:16:52;;;;;;;6.63;5.95;;;;;;;;;;5092466;28;20301;-78
2023/07/24 09:19:20;;;;;;;6.95;6.18;;;;;;;;;;5093230;28;20200;-78
2023/07/24 09:21:46;;;;;;;7.05;6.05;;;;;;;;;;5099169;28;20195;-78
2023/07/24 09:24:14;;;;;;;8.10;5.50;;;;;;;;;;5102193;28;20233;-78
2023/07/24 09:26:58;;;;;;;6.22;5.57;;;;;;;;;;5099545;28;20200;-77
2023/07/24 09:29:31;;;;;;;6.40;5.63;;;;;;;;;;5092762;28;20220;-77
2023/07/24 09:31:58;;;;;;;7.63;5.90;;;;;;;;;;5092006;28;20203;-78
2023/07/24 09:34:25;;;;;;;5.90;5.32;;;;;;;;;;5093293;28;20196;-78
2023/07/24 09:36:52;;;;;;;5.10;4.70;;;;;;;;;;5107843;28;20215;-78
2023/07/24 09:39:24;;;;;;;6.13;5.53;;;;;;;;;;5111767;28;20554;-78
2023/07/24 09:41:54;;;;;;;6.30;5.70;;;;;;;;;;5113113;28;20564;-78
2023/07/24 09:44:22;;;;;;;5.90;5.40;;;;;;;;;;5106043;28;20234;-78
2023/07/24 09:46:49;;;;;;;6.72;5.95;;;;;;;;;;5110518;28;20615;-78
2023/07/24 09:49:16;;;;;;;6.15;5.55;;;;;;;;;;5098682;28;20231;-78
2023/07/24 09:51:43;;;;;;;7.03;6.28;;;;;;;;;;5091803;28;20717;-78
2023/07/24 09:54:16;;;;;;;7.88;6.90;;;;;;;;;;5099927;28;20220;-78
2023/07/24 09:56:43;;;;;;;7.97;7.20;;;;;;;;;;5111687;28;20187;-78
2023/07/24 09:59:11;;;;;;;7.28;6.43;;;;;;;;;;5108051;28;20193;-78
2023/07/24 10:01:40;;;;;;;7.28;6.57;;;;;;;;;;5107448;28;20204;-77
2023/07/24 10:04:08;;;;;;;8.90;6.75;;;;;;;;;;5103092;28;20196;-78
2023/07/24 10:06:35;;;;;;;10.30;6.43;;;;;;;;;;5111620;28;20573;-78
2023/07/24 10:09:02;;;;;;;6.75;6.15;;;;;;;;;;5113116;28;20227;-78
2023/07/24 10:11:29;;;;;;;7.10;6.45;;;;;;;;;;5096084;28;20193;-78
2023/07/24 10:13:56;;;;;;;6.03;5.53;;;;;;;;;;5092427;28;20207;-78
2023/07/24 10:16:22;;;;;;;5.95;5.43;;;;;;;;;;5111719;28;20199;-77
2023/07/24 10:18:51;;;;;;;8.35;6.13;;;;;;;;;;5096938;28;20204;-78
2023/07/24 10:21:17;;;;;;;6.97;6.28;;;;;;;;;;5091724;28;20670;-78
2023/07/24 10:23:46;;;;;;;7.05;6.40;;;;;;;;;;5099950;28;20195;-78
2023/07/24 10:26:14;;;;;;;7.50;6.80;;;;;;;;;;5092172;28;20200;-78
2023/07/24 10:28:41;;;;;;;8.48;5.97;;;;;;;;;;5091753;28;20231;-78
2023/07/24 10:31:19;;;;;;;6.40;5.80;;;;;;;;;;5090105;28;20247;-77
2023/07/24 10:33:47;;;;;;;7.35;6.65;;;;;;;;;;5104422;28;20213;-77
2023/07/24 10:36:19;;;;;;;6.03;5.45;;;;;;;;;;5112126;28;20673;-77
2023/07/24 10:38:47;;;;;;;7.20;6.50;;;;;;;;;;5092527;28;20238;-77
2023/07/24 10:41:14;;;;;;;6.45;5.82;;;;;;;;;;5094170;28;20200;-78
2023/07/24 10:43:42;;;;;;;7.45;6.75;;;;;;;;;;5106327;28;20202;-78
2023/07/24 10:46:09;;;;;;;6.07;5.47;;;;;;;;;;5108212;28;20203;-78
2023/07/24 10:48:36;;;;;;;6.13;5.53;;;;;;;;;;5112321;28;20305;-77
2023/07/24 10:51:08;;;;;;;6.93;6.32;;;;;;;;;;5098850;28;20224;-78
2023/07/24 10:53:37;;;;;;;6.57;5.97;;;;;;;;;;5095189;28;20192;-78
2023/07/24 10:56:04;;;;;;;6.80;5.75;;;;;;;;;;5111329;28;20231;-77
2023/07/24 10:58:31;;;;;;;6.65;6.15;;;;;;;;;;5100713;28;20562;-78
2023/07/24 11:00:58;;;;;;;6.53;5.93;;;;;;;;;;5106043;28;20187;-77
2023/07/24 11:03:26;;;;;;;6.00;5.50;;;;;;;;;;5104873;28;20199;-77
2023/07/24 11:05:53;;;;;;;7.28;6.22;;;;;;;;;;5091838;28;20204;-78
2023/07/24 11:08:21;;;;;;;6.35;5.72;;;;;;;;;;5091351;28;20242;-78
2023/07/24 11:10:50;;;;;;;6.45;5.95;;;;;;;;;;5092128;28;20204;-78
2023/07/24 11:13:19;;;;;;;6.88;6.28;;;;;;;;;;5090467;28;20271;-78
2023/07/24 11:15:46;;;;;;;7.00;6.30;;;;;;;;;;5100656;28;20207;-78
2023/07/24 11:18:15;;;;;;;7.25;6.35;;;;;;;;;;5111889;28;20688;-78
2023/07/24 11:20:45;;;;;;;7.93;7.00;;;;;;;;;;5095420;28;20210;-77
2023/07/24 11:23:12;;;;;;;7.40;6.70;;;;;;;;;;5099575;28;20200;-79
2023/07/24 11:25:39;;;;;;;8.68;6.75;;;;;;;;;;5090642;28;20655;-78
2023/07/24 11:28:07;;;;;;;8.18;5.90;;;;;;;;;;5091109;28;20261;-78
2023/07/24 11:30:34;;;;;;;7.75;6.95;;;;;;;;;;5091126;28;20200;-78
2023/07/24 11:33:03;;;;;;;6.60;6.00;;;;;;;;;;5099559;28;20734;-78
2023/07/24 11:35:30;;;;;;;7.82;6.90;;;;;;;;;;5090732;28;20203;-78
2023/07/24 11:37:57;;;;;;;7.80;7.00;;;;;;;;;;5091916;28;20192;-78
2023/07/24 11:40:32;;;;;;;7.72;6.93;;;;;;;;;;5094262;28;20188;-78
2023/07/24 11:42:59;;;;;;;7.82;6.50;;;;;;;;;;5094819;28;20199;-78
2023/07/24 11:45:28;;;;;;;7.85;6.95;;;;;;;;;;5094847;28;20207;-78
2023/07/24 11:47:56;;;;;;;8.07;7.38;;;;;;;;;;5094520;28;20200;-78
2023/07/24 11:50:25;;;;;;;6.88;6.13;;;;;;;;;;5112762;28;20239;-78
2023/07/24 11:52:52;;;;;;;7.90;7.20;;;;;;;;;;5111096;28;20196;-78
2023/07/24 11:55:20;;;;;;;8.98;7.78;;;;;;;;;;5095077;28;20200;-78
2023/07/24 11:57:58;;;;;;;9.13;7.80;;;;;;;;;;5095015;28;20196;-78
2023/07/24 12:00:27;;;;;;;8.57;7.20;;;;;;;;;;5103943;28;20206;-78
2023/07/24 12:02:56;;;;;;;7.63;6.82;;;;;;;;;;5105538;28;20196;-77
2023/07/24 12:05:23;;;;;;;9.05;7.53;;;;;;;;;;5114255;28;20195;-78
2023/07/24 12:07:54;;;;;;;9.35;8.35;;;;;;;;;;5112449;28;20203;-78
2023/07/24 12:10:27;;;;;;;8.52;7.00;;;;;;;;;;5107525;28;20226;-77
2023/07/24 12:12:54;;;;;;;7.00;6.25;;;;;;;;;;5098792;28;20264;-78
2023/07/24 12:15:21;;;;;;;15.80;7.95;;;;;;;;;;5093316;28;20196;-78
2023/07/24 12:17:49;;;;;;;9.18;6.95;;;;;;;;;;5093992;28;20196;-78
2023/07/24 12:20:16;;;;;;;8.25;6.97;;;;;;;;;;5093140;28;20571;-78
2023/07/24 12:22:42;;;;;;;8.13;7.32;;;;;;;;;;5094172;28;20207;-77
2023/07/24 12:25:09;;;;;;;7.07;6.25;;;;;;;;;;5110126;28;20662;-78
2023/07/24 12:27:37;;;;;;;6.97;6.38;;;;;;;;;;5094234;28;20209;-77
2023/07/24 12:30:05;;;;;;;9.48;7.45;;;;;;;;;;5107872;28;20216;-78
2023/07/24 12:32:32;;;;;;;7.50;6.72;;;;;;;;;;5113853;28;20573;-78
2023/07/24 12:35:00;;;;;;;8.85;7.20;;;;;;;;;;5114571;28;20195;-78
2023/07/24 12:37:28;;;;;;;8.00;7.10;;;;;;;;;;5099809;28;20203;-78
2023/07/24 12:39:55;;;;;;;10.98;7.35;;;;;;;;;;5099779;28;20611;-78
2023/07/24 12:42:23;;;;;;;12.45;7.35;;;;;;;;;;5104283;28;20260;-78
2023/07/24 12:44:50;;;;;;;8.63;7.00;;;;;;;;;;5110307;28;20571;-78
2023/07/24 12:47:17;;;;;;;8.43;6.75;;;;;;;;;;5093397;28;20670;-78
2023/07/24 12:49:44;;;;;;;7.90;6.80;;;;;;;;;;5092382;28;20231;-77
2023/07/24 12:52:12;;;;;;;11.95;7.95;;;;;;;;;;5102179;28;20234;-78
2023/07/24 12:54:39;;;;;;;8.15;7.15;;;;;;;;;;5113561;28;20689;-78
2023/07/24 12:57:06;;;;;;;7.68;6.93;;;;;;;;;;5114039;28;20701;-77
2023/07/24 12:59:33;;;;;;;8.20;7.30;;;;;;;;;;5096538;28;20196;-77
2023/07/24 13:01:59;;;;;;;7.55;6.85;;;;;;;;;;5101928;28;20264;-79
2023/07/24 13:04:26;;;;;;;7.47;6.78;;;;;;;;;;5092555;28;20200;-78
2023/07/24 13:06:53;;;;;;;9.02;7.32;;;;;;;;;;5106610;28;20199;-78
2023/07/24 13:09:23;;;;;;;9.52;7.80;;;;;;;;;;5113615;28;20223;-77
2023/07/24 13:11:51;;;;;;;8.80;7.90;;;;;;;;;;5102472;28;20738;-78
2023/07/24 13:14:18;;;;;;;8.25;7.40;;;;;;;;;;5106705;28;20576;-78
2023/07/24 13:16:45;;;;;;;10.23;7.38;;;;;;;;;;5112802;28;20278;-77
2023/07/24 13:19:12;;;;;;;7.55;6.85;;;;;;;;;;5112762;28;20196;-77
2023/07/24 13:21:39;;;;;;;9.40;8.43;;;;;;;;;;5102500;28;20204;-78
2023/07/24 13:24:06;;;;;;;7.57;6.78;;;;;;;;;;5096945;28;20219;-78
2023/07/24 13:26:35;;;;;;;9.00;7.85;;;;;;;;;;5098417;28;20214;-78
2023/07/24 13:29:02;;;;;;;8.38;7.47;;;;;;;;;;5091890;28;20596;-77
2023/07/24 13:31:29;;;;;;;9.60;8.57;;;;;;;;;;5101649;28;20713;-78
2023/07/24 13:33:56;;;;;;;7.82;6.78;;;;;;;;;;5096005;28;20246;-77
2023/07/24 13:36:22;;;;;;;7.53;6.68;;;;;;;;;;5113505;28;20200;-77
2023/07/24 13:38:51;;;;;;;7.63;6.88;;;;;;;;;;5111707;28;20547;-78
2023/07/24 13:41:18;;;;;;;9.40;8.35;;;;;;;;;;5112078;28;20202;-78
2023/07/24 13:43:46;;;;;;;9.07;7.00;;;;;;;;;;5112160;28;20202;-77
2023/07/24 13:46:14;;;;;;;8.80;6.85;;;;;;;;;;5095718;28;20200;-77
2023/07/24 13:48:41;;;;;;;7.57;6.88;;;;;;;;;;5092354;28;20549;-78
2023/07/24 13:51:10;;;;;;;9.13;7.45;;;;;;;;;;5092217;28;20235;-77
2023/07/24 13:53:37;;;;;;;8.05;7.25;;;;;;;;;;5092672;28;20574;-77
2023/07/24 13:56:04;;;;;;;7.65;6.95;;;;;;;;;;5090785;28;20207;-77
2023/07/24 13:58:31;;;;;;;8.02;7.30;;;;;;;;;;5100228;28;20207;-77
2023/07/24 14:00:59;;;;;;;7.32;6.57;;;;;;;;;;5091976;28;20192;-78
2023/07/24 14:03:28;;;;;;;9.13;7.38;;;;;;;;;;5107014;28;20614;-78
2023/07/24 14:05:56;;;;;;;10.25;7.78;;;;;;;;;;5093648;28;20259;-78
2023/07/24 14:08:23;;;;;;;11.80;7.53;;;;;;;;;;5092135;28;20371;-77
2023/07/24 14:10:50;;;;;;;8.23;7.43;;;;;;;;;;5095770;28;20219;-77
2023/07/24 14:13:17;;;;;;;8.07;7.38;;;;;;;;;;5111986;28;20195;-78
2023/07/24 14:15:44;;;;;;;9.45;8.48;;;;;;;;;;5092157;28;20207;-78
2023/07/24 14:18:12;;;;;;;8.77;7.95;;;;;;;;;;5103465;28;20199;-78
2023/07/24 14:20:40;;;;;;;8.55;7.35;;;;;;;;;;5103380;28;20187;-77
2023/07/24 14:23:07;;;;;;;9.23;7.90;;;;;;;;;;5111670;28;20200;-77
2023/07/24 14:25:34;;;;;;;8.23;7.25;;;;;;;;;;5111964;28;20263;-78
2023/07/24 14:28:01;;;;;;;8.82;7.85;;;;;;;;;;5111717;28;20188;-77
2023/07/24 14:30:28;;;;;;;8.18;7.35;;;;;;;;;;5112120;28;20234;-78
2023/07/24 14:32:55;;;;;;;8.35;7.53;;;;;;;;;;5102512;28;20195;-77
2023/07/24 14:35:23;;;;;;;8.18;7.38;;;;;;;;;;5091772;28;20204;-78
2023/07/24 14:37:50;;;;;;;8.05;7.22;;;;;;;;;;5105409;28;20199;-77
2023/07/24 14:40:16;;;;;;;10.18;7.78;;;;;;;;;;5111099;28;20206;-77
2023/07/24 14:42:43;;;;;;;9.60;8.60;;;;;;;;;;5112435;28;20199;-77